sensor_id;sensor_type;location;lat;lon;timestamp;pressure;altitude;pressure_sealevel;temperature;humidity
41531;BME280;58990;46.284;13.126;2022-10-31T00:00:15;99878.22;;;16.36;55.37
41531;BME280;58990;46.284;13.126;2022-10-31T00:02:41;99883.94;;;16.46;54.80
41531;BME280;58990;46.284;13.126;2022-10-31T00:05:06;99877.44;;;16.55;54.61
41531;BME280;58990;46.284;13.126;2022-10-31T00:07:32;99885.59;;;16.54;55.02
41531;BME280;58990;46.284;13.126;2022-10-31T00:09:57;99890.88;;;16.54;54.75
41531;BME280;58990;46.284;13.126;2022-10-31T00:12:22;99885.16;;;16.57;54.34
41531;BME280;58990;46.284;13.126;2022-10-31T00:14:48;99889.47;;;16.58;54.23
41531;BME280;58990;46.284;13.126;2022-10-31T00:17:13;99885.16;;;16.57;54.20
41531;BME280;58990;46.284;13.126;2022-10-31T00:19:39;99879.88;;;16.57;53.87
41531;BME280;58990;46.284;13.126;2022-10-31T00:22:04;99878.66;;;16.59;53.31
41531;BME280;58990;46.284;13.126;2022-10-31T00:24:29;99881.91;;;16.61;53.75
41531;BME280;58990;46.284;13.126;2022-10-31T00:26:55;99881.50;;;16.58;53.56
41531;BME280;58990;46.284;13.126;2022-10-31T00:29:20;99885.59;;;16.60;53.02
41531;BME280;58990;46.284;13.126;2022-10-31T00:31:45;99881.28;;;16.59;53.79
41531;BME280;58990;46.284;13.126;2022-10-31T00:34:11;99880.88;;;16.56;53.64
41531;BME280;58990;46.284;13.126;2022-10-31T00:36:36;99880.09;;;16.48;54.40
41531;BME280;58990;46.284;13.126;2022-10-31T00:39:02;99885.16;;;16.43;54.17
41531;BME280;58990;46.284;13.126;2022-10-31T00:41:27;99876.22;;;16.31;54.67
41531;BME280;58990;46.284;13.126;2022-10-31T00:43:54;99880.69;;;16.30;54.02
41531;BME280;58990;46.284;13.126;2022-10-31T00:46:19;99884.78;;;16.33;54.23
41531;BME280;58990;46.284;13.126;2022-10-31T00:48:44;99884.16;;;16.31;54.65
41531;BME280;58990;46.284;13.126;2022-10-31T00:51:10;99882.31;;;16.31;54.42
41531;BME280;58990;46.284;13.126;2022-10-31T00:53:36;99879.47;;;16.20;55.00
41531;BME280;58990;46.284;13.126;2022-10-31T00:56:02;99881.50;;;16.18;55.17
41531;BME280;58990;46.284;13.126;2022-10-31T00:58:27;99879.03;;;16.09;55.71
41531;BME280;58990;46.284;13.126;2022-10-31T01:00:53;99884.75;;;16.06;55.04
41531;BME280;58990;46.284;13.126;2022-10-31T01:03:26;99879.25;;;16.08;54.85
41531;BME280;58990;46.284;13.126;2022-10-31T01:08:39;99873.28;;;15.92;55.64
41531;BME280;58990;46.284;13.126;2022-10-31T01:13:44;99869.22;;;15.83;55.79
41531;BME280;58990;46.284;13.126;2022-10-31T01:16:11;99872.03;;;15.81;56.11
41531;BME280;58990;46.284;13.126;2022-10-31T01:18:37;99863.09;;;15.83;55.55
41531;BME280;58990;46.284;13.126;2022-10-31T01:21:09;99870.22;;;15.82;55.47
41531;BME280;58990;46.284;13.126;2022-10-31T01:23:35;99873.69;;;15.83;55.54
41531;BME280;58990;46.284;13.126;2022-10-31T01:28:50;99859.03;;;15.80;55.80
41531;BME280;58990;46.284;13.126;2022-10-31T01:31:17;99860.47;;;15.96;54.68
41531;BME280;58990;46.284;13.126;2022-10-31T01:33:43;99855.81;;;15.91;54.93
41531;BME280;58990;46.284;13.126;2022-10-31T01:39:07;99852.53;;;15.96;54.06
41531;BME280;58990;46.284;13.126;2022-10-31T01:41:35;99856.41;;;16.00;54.48
41531;BME280;58990;46.284;13.126;2022-10-31T01:47:13;99852.97;;;16.06;53.78
41531;BME280;58990;46.284;13.126;2022-10-31T01:49:43;99861.50;;;16.02;54.00
41531;BME280;58990;46.284;13.126;2022-10-31T01:52:30;99857.84;;;15.96;54.97
41531;BME280;58990;46.284;13.126;2022-10-31T01:57:37;99852.72;;;15.81;55.95
41531;BME280;58990;46.284;13.126;2022-10-31T02:00:08;99857.75;;;15.69;55.86
41531;BME280;58990;46.284;13.126;2022-10-31T02:02:35;99860.00;;;15.66;55.99
41531;BME280;58990;46.284;13.126;2022-10-31T02:05:06;99849.56;;;15.57;56.16
41531;BME280;58990;46.284;13.126;2022-10-31T02:07:41;99848.34;;;15.60;56.01
41531;BME280;58990;46.284;13.126;2022-10-31T02:10:07;99851.41;;;15.57;55.73
41531;BME280;58990;46.284;13.126;2022-10-31T02:12:34;99852.63;;;15.61;55.80
41531;BME280;58990;46.284;13.126;2022-10-31T02:15:03;99852.03;;;15.59;56.14
41531;BME280;58990;46.284;13.126;2022-10-31T02:17:29;99849.19;;;15.60;55.33
41531;BME280;58990;46.284;13.126;2022-10-31T02:26:09;99850.44;;;15.71;54.96
41531;BME280;58990;46.284;13.126;2022-10-31T02:40:05;99842.69;;;15.63;54.71
41531;BME280;58990;46.284;13.126;2022-10-31T02:43:06;99847.56;;;15.66;54.30
41531;BME280;58990;46.284;13.126;2022-10-31T02:45:44;99848.38;;;15.73;54.41
41531;BME280;58990;46.284;13.126;2022-10-31T02:48:21;99852.03;;;15.72;54.33
41531;BME280;58990;46.284;13.126;2022-10-31T02:50:58;99853.47;;;15.68;54.20
41531;BME280;58990;46.284;13.126;2022-10-31T02:53:24;99855.50;;;15.66;54.38
41531;BME280;58990;46.284;13.126;2022-10-31T02:56:00;99852.84;;;15.66;54.36
41531;BME280;58990;46.284;13.126;2022-10-31T02:58:32;99853.06;;;15.64;54.20
41531;BME280;58990;46.284;13.126;2022-10-31T03:06:31;99849.41;;;15.66;53.73
41531;BME280;58990;46.284;13.126;2022-10-31T03:11:47;99849.38;;;15.59;54.46
41531;BME280;58990;46.284;13.126;2022-10-31T03:14:22;99848.75;;;15.57;54.37
41531;BME280;58990;46.284;13.126;2022-10-31T03:16:50;99852.41;;;15.56;55.09
41531;BME280;58990;46.284;13.126;2022-10-31T03:22:07;99856.22;;;15.40;54.78
41531;BME280;58990;46.284;13.126;2022-10-31T03:24:37;99862.13;;;15.42;54.74
41531;BME280;58990;46.284;13.126;2022-10-31T03:27:05;99864.81;;;15.48;54.11
41531;BME280;58990;46.284;13.126;2022-10-31T03:29:35;99860.75;;;15.53;54.31
41531;BME280;58990;46.284;13.126;2022-10-31T03:32:08;99863.41;;;15.59;53.59
41531;BME280;58990;46.284;13.126;2022-10-31T03:34:37;99859.34;;;15.63;53.78
41531;BME280;58990;46.284;13.126;2022-10-31T03:37:07;99855.28;;;15.61;53.81
41531;BME280;58990;46.284;13.126;2022-10-31T03:39:35;99866.47;;;15.56;54.06
41531;BME280;58990;46.284;13.126;2022-10-31T03:42:09;99857.06;;;15.47;55.00
41531;BME280;58990;46.284;13.126;2022-10-31T03:44:37;99861.31;;;15.41;54.67
41531;BME280;58990;46.284;13.126;2022-10-31T03:47:04;99869.63;;;15.38;54.82
41531;BME280;58990;46.284;13.126;2022-10-31T03:49:30;99865.38;;;15.37;54.85
41531;BME280;58990;46.284;13.126;2022-10-31T03:54:46;99865.38;;;15.37;54.35
41531;BME280;58990;46.284;13.126;2022-10-31T03:57:21;99854.41;;;15.40;53.78
41531;BME280;58990;46.284;13.126;2022-10-31T04:00:04;99851.81;;;15.54;53.79
41531;BME280;58990;46.284;13.126;2022-10-31T04:02:32;99861.34;;;15.48;53.92
41531;BME280;58990;46.284;13.126;2022-10-31T04:04:59;99860.91;;;15.44;54.11
41531;BME280;58990;46.284;13.126;2022-10-31T04:07:28;99869.03;;;15.36;54.45
41531;BME280;58990;46.284;13.126;2022-10-31T04:09:56;99859.88;;;15.32;54.66
41531;BME280;58990;46.284;13.126;2022-10-31T04:12:23;99864.50;;;15.30;54.90
41531;BME280;58990;46.284;13.126;2022-10-31T04:14:51;99864.28;;;15.25;54.93
41531;BME280;58990;46.284;13.126;2022-10-31T04:17:20;99860.81;;;15.18;54.81
41531;BME280;58990;46.284;13.126;2022-10-31T04:19:47;99860.00;;;15.17;54.67
41531;BME280;58990;46.284;13.126;2022-10-31T04:22:12;99864.91;;;15.27;54.86
41531;BME280;58990;46.284;13.126;2022-10-31T04:24:39;99869.38;;;15.26;54.69
41531;BME280;58990;46.284;13.126;2022-10-31T04:27:05;99874.53;;;15.35;54.00
41531;BME280;58990;46.284;13.126;2022-10-31T04:29:30;99859.25;;;15.37;54.10
41531;BME280;58990;46.284;13.126;2022-10-31T04:31:56;99862.31;;;15.34;54.01
41531;BME280;58990;46.284;13.126;2022-10-31T04:34:21;99869.41;;;15.33;54.41
41531;BME280;58990;46.284;13.126;2022-10-31T04:36:47;99868.59;;;15.33;54.29
41531;BME280;58990;46.284;13.126;2022-10-31T04:39:12;99862.88;;;15.29;54.06
41531;BME280;58990;46.284;13.126;2022-10-31T04:41:37;99859.88;;;15.32;53.76
41531;BME280;58990;46.284;13.126;2022-10-31T04:44:03;99870.50;;;15.45;53.23
41531;BME280;58990;46.284;13.126;2022-10-31T04:46:28;99866.22;;;15.44;53.51
41531;BME280;58990;46.284;13.126;2022-10-31T04:48:53;99868.22;;;15.42;53.39
41531;BME280;58990;46.284;13.126;2022-10-31T04:51:19;99870.66;;;15.37;53.73
41531;BME280;58990;46.284;13.126;2022-10-31T04:53:44;99867.41;;;15.35;53.69
41531;BME280;58990;46.284;13.126;2022-10-31T04:56:09;99859.25;;;15.37;53.92
41531;BME280;58990;46.284;13.126;2022-10-31T04:58:35;99866.63;;;15.41;53.57
41531;BME280;58990;46.284;13.126;2022-10-31T05:01:00;99865.56;;;15.42;53.38
41531;BME280;58990;46.284;13.126;2022-10-31T05:03:25;99875.19;;;15.50;53.11
41531;BME280;58990;46.284;13.126;2022-10-31T05:05:51;99869.47;;;15.46;53.19
41531;BME280;58990;46.284;13.126;2022-10-31T05:08:16;99870.66;;;15.37;54.09
41531;BME280;58990;46.284;13.126;2022-10-31T05:10:42;99867.16;;;15.30;53.96
41531;BME280;58990;46.284;13.126;2022-10-31T05:13:08;99868.56;;;15.26;53.88
41531;BME280;58990;46.284;13.126;2022-10-31T05:15:33;99868.34;;;15.21;53.98
41531;BME280;58990;46.284;13.126;2022-10-31T05:17:59;99878.31;;;15.19;54.29
41531;BME280;58990;46.284;13.126;2022-10-31T05:20:27;99866.13;;;15.24;52.91
41531;BME280;58990;46.284;13.126;2022-10-31T05:22:54;99866.59;;;15.35;53.23
41531;BME280;58990;46.284;13.126;2022-10-31T05:25:24;99862.72;;;15.44;52.58
41531;BME280;58990;46.284;13.126;2022-10-31T05:27:51;99866.03;;;15.53;52.43
41531;BME280;58990;46.284;13.126;2022-10-31T05:30:20;99867.25;;;15.50;51.85
41531;BME280;58990;46.284;13.126;2022-10-31T05:32:47;99871.94;;;15.55;52.20
41531;BME280;58990;46.284;13.126;2022-10-31T05:35:16;99869.47;;;15.46;52.92
41531;BME280;58990;46.284;13.126;2022-10-31T05:37:42;99867.41;;;15.42;53.07
41531;BME280;58990;46.284;13.126;2022-10-31T05:40:09;99879.19;;;15.33;53.38
41531;BME280;58990;46.284;13.126;2022-10-31T05:42:35;99868.97;;;15.23;54.11
41531;BME280;58990;46.284;13.126;2022-10-31T05:45:03;99871.34;;;15.11;54.71
41531;BME280;58990;46.284;13.126;2022-10-31T05:47:28;99873.38;;;15.09;54.49
41531;BME280;58990;46.284;13.126;2022-10-31T05:49:53;99873.34;;;15.02;54.61
41531;BME280;58990;46.284;13.126;2022-10-31T05:52:19;99873.34;;;15.02;54.66
41531;BME280;58990;46.284;13.126;2022-10-31T05:54:44;99868.66;;;15.04;54.76
41531;BME280;58990;46.284;13.126;2022-10-31T05:57:10;99870.69;;;15.02;54.68
41531;BME280;58990;46.284;13.126;2022-10-31T05:59:35;99867.66;;;15.05;54.39
41531;BME280;58990;46.284;13.126;2022-10-31T06:02:01;99862.97;;;15.07;54.21
41531;BME280;58990;46.284;13.126;2022-10-31T06:04:26;99869.28;;;15.06;54.59
41531;BME280;58990;46.284;13.126;2022-10-31T06:06:51;99879.47;;;15.09;54.49
41531;BME280;58990;46.284;13.126;2022-10-31T06:09:17;99885.38;;;15.11;54.25
41531;BME280;58990;46.284;13.126;2022-10-31T06:11:42;99870.56;;;15.17;53.63
41531;BME280;58990;46.284;13.126;2022-10-31T06:14:08;99882.22;;;15.29;53.51
41531;BME280;58990;46.284;13.126;2022-10-31T06:16:33;99873.47;;;15.36;53.37
41531;BME280;58990;46.284;13.126;2022-10-31T06:18:59;99879.22;;;15.39;53.41
41531;BME280;58990;46.284;13.126;2022-10-31T06:21:24;99877.19;;;15.41;53.45
41531;BME280;58990;46.284;13.126;2022-10-31T06:23:49;99889.19;;;15.37;53.66
41531;BME280;58990;46.284;13.126;2022-10-31T06:26:15;99882.69;;;15.46;53.18
41531;BME280;58990;46.284;13.126;2022-10-31T06:28:40;99888.22;;;15.52;52.77
41531;BME280;58990;46.284;13.126;2022-10-31T06:31:06;99892.53;;;15.59;52.74
41531;BME280;58990;46.284;13.126;2022-10-31T06:33:33;99888.88;;;15.67;52.64
41531;BME280;58990;46.284;13.126;2022-10-31T06:35:59;99890.69;;;15.67;52.51
41531;BME280;58990;46.284;13.126;2022-10-31T06:38:27;99896.03;;;15.73;52.64
41531;BME280;58990;46.284;13.126;2022-10-31T06:40:53;99888.31;;;15.78;51.68
41531;BME280;58990;46.284;13.126;2022-10-31T06:43:23;99894.91;;;15.96;50.92
41531;BME280;58990;46.284;13.126;2022-10-31T06:45:48;99892.69;;;16.06;51.00
41531;BME280;58990;46.284;13.126;2022-10-31T06:48:13;99890.06;;;16.13;51.31
41531;BME280;58990;46.284;13.126;2022-10-31T06:50:39;99890.88;;;16.27;50.47
41531;BME280;58990;46.284;13.126;2022-10-31T06:53:04;99900.25;;;16.36;50.18
41531;BME280;58990;46.284;13.126;2022-10-31T06:55:30;99901.28;;;16.62;49.89
41531;BME280;58990;46.284;13.126;2022-10-31T06:57:58;99902.91;;;17.62;47.22
41531;BME280;58990;46.284;13.126;2022-10-31T07:00:25;99898.28;;;19.71;42.62
41531;BME280;58990;46.284;13.126;2022-10-31T07:03:00;99910.44;;;22.04;37.86
41531;BME280;58990;46.284;13.126;2022-10-31T07:05:26;99914.72;;;23.07;35.32
41531;BME280;58990;46.284;13.126;2022-10-31T07:07:56;99908.97;;;24.14;33.49
41531;BME280;58990;46.284;13.126;2022-10-31T07:10:23;99915.19;;;25.38;31.00
41531;BME280;58990;46.284;13.126;2022-10-31T07:12:57;99913.63;;;25.52;30.37
41531;BME280;58990;46.284;13.126;2022-10-31T07:15:24;99912.16;;;26.08;29.36
41531;BME280;58990;46.284;13.126;2022-10-31T07:17:49;99917.28;;;26.41;28.89
41531;BME280;58990;46.284;13.126;2022-10-31T07:20:15;99931.34;;;27.49;28.08
41531;BME280;58990;46.284;13.126;2022-10-31T07:22:40;99928.63;;;27.99;27.08
41531;BME280;58990;46.284;13.126;2022-10-31T07:25:06;99931.63;;;28.32;26.94
41531;BME280;58990;46.284;13.126;2022-10-31T07:27:39;99928.47;;;28.20;26.16
41531;BME280;58990;46.284;13.126;2022-10-31T07:30:06;99937.34;;;27.81;26.17
41531;BME280;58990;46.284;13.126;2022-10-31T07:32:40;99932.00;;;28.15;26.34
41531;BME280;58990;46.284;13.126;2022-10-31T07:35:11;99939.25;;;28.54;25.97
41531;BME280;58990;46.284;13.126;2022-10-31T07:37:37;99934.81;;;28.69;25.75
41531;BME280;58990;46.284;13.126;2022-10-31T07:40:04;99935.03;;;29.50;24.50
41531;BME280;58990;46.284;13.126;2022-10-31T07:42:41;99931.28;;;29.46;24.14
41531;BME280;58990;46.284;13.126;2022-10-31T07:45:09;99930.34;;;29.75;23.90
41531;BME280;58990;46.284;13.126;2022-10-31T07:47:43;99930.53;;;30.83;22.43
41531;BME280;58990;46.284;13.126;2022-10-31T07:50:11;99936.75;;;31.39;21.57
41531;BME280;58990;46.284;13.126;2022-10-31T07:52:36;99929.19;;;31.50;21.71
41531;BME280;58990;46.284;13.126;2022-10-31T07:55:03;99931.44;;;32.52;20.74
41531;BME280;58990;46.284;13.126;2022-10-31T07:57:29;99931.66;;;33.71;19.73
41531;BME280;58990;46.284;13.126;2022-10-31T07:59:54;99928.59;;;32.89;20.48
41531;BME280;58990;46.284;13.126;2022-10-31T08:02:20;99931.84;;;34.01;18.72
41531;BME280;58990;46.284;13.126;2022-10-31T08:04:45;99928.94;;;34.33;18.77
41531;BME280;58990;46.284;13.126;2022-10-31T08:07:10;99929.28;;;34.70;18.76
41531;BME280;58990;46.284;13.126;2022-10-31T08:09:36;99931.13;;;34.48;18.64
41531;BME280;58990;46.284;13.126;2022-10-31T08:12:01;99927.66;;;33.51;20.33
41531;BME280;58990;46.284;13.126;2022-10-31T08:14:27;99932.53;;;35.02;18.74
41531;BME280;58990;46.284;13.126;2022-10-31T08:16:53;99923.22;;;35.03;18.29
41531;BME280;58990;46.284;13.126;2022-10-31T08:19:18;99935.91;;;34.60;18.47
41531;BME280;58990;46.284;13.126;2022-10-31T08:21:44;99925.34;;;35.48;17.75
41531;BME280;58990;46.284;13.126;2022-10-31T08:24:09;99924.59;;;35.18;18.46
41531;BME280;58990;46.284;13.126;2022-10-31T08:26:35;99921.22;;;34.35;19.19
41531;BME280;58990;46.284;13.126;2022-10-31T08:29:00;99930.28;;;35.04;18.26
41531;BME280;58990;46.284;13.126;2022-10-31T08:31:27;99926.38;;;34.75;18.19
41531;BME280;58990;46.284;13.126;2022-10-31T08:33:53;99926.84;;;34.77;18.71
41531;BME280;58990;46.284;13.126;2022-10-31T08:36:19;99912.09;;;34.78;19.16
41531;BME280;58990;46.284;13.126;2022-10-31T08:38:46;99921.09;;;34.14;19.12
41531;BME280;58990;46.284;13.126;2022-10-31T08:41:11;99919.53;;;34.69;19.35
41531;BME280;58990;46.284;13.126;2022-10-31T08:43:37;99916.41;;;34.79;18.79
41531;BME280;58990;46.284;13.126;2022-10-31T08:46:02;99912.94;;;35.60;17.88
41531;BME280;58990;46.284;13.126;2022-10-31T08:48:28;99915.69;;;35.30;18.24
41531;BME280;58990;46.284;13.126;2022-10-31T08:50:56;99912.31;;;35.33;17.89
41531;BME280;58990;46.284;13.126;2022-10-31T08:53:26;99911.28;;;34.78;19.08
41531;BME280;58990;46.284;13.126;2022-10-31T08:55:54;99914.25;;;34.64;18.72
41531;BME280;58990;46.284;13.126;2022-10-31T08:58:20;99914.47;;;34.50;19.93
41531;BME280;58990;46.284;13.126;2022-10-31T09:00:47;99918.28;;;34.96;18.25
41531;BME280;58990;46.284;13.126;2022-10-31T09:03:21;99910.78;;;34.93;18.32
41531;BME280;58990;46.284;13.126;2022-10-31T09:05:47;99911.00;;;34.14;18.87
41531;BME280;58990;46.284;13.126;2022-10-31T09:08:13;99917.19;;;34.50;18.34
41531;BME280;58990;46.284;13.126;2022-10-31T09:10:39;99908.91;;;33.41;19.73
41531;BME280;58990;46.284;13.126;2022-10-31T09:15:46;99917.91;;;32.93;21.35
41531;BME280;58990;46.284;13.126;2022-10-31T09:18:14;99914.25;;;33.06;19.47
41531;BME280;58990;46.284;13.126;2022-10-31T09:20:41;99914.16;;;32.48;20.29
41531;BME280;58990;46.284;13.126;2022-10-31T09:23:13;99914.19;;;32.03;21.09
41531;BME280;58990;46.284;13.126;2022-10-31T09:25:40;99914.78;;;32.00;21.34
41531;BME280;58990;46.284;13.126;2022-10-31T09:28:06;99915.66;;;31.86;22.34
41531;BME280;58990;46.284;13.126;2022-10-31T09:30:34;99918.19;;;31.32;22.59
41531;BME280;58990;46.284;13.126;2022-10-31T09:33:02;99911.88;;;30.34;24.42
41531;BME280;58990;46.284;13.126;2022-10-31T09:35:29;99921.38;;;30.65;24.06
41531;BME280;58990;46.284;13.126;2022-10-31T09:37:56;99917.56;;;30.66;24.03
41531;BME280;58990;46.284;13.126;2022-10-31T09:40:24;99923.00;;;30.33;23.87
41531;BME280;58990;46.284;13.126;2022-10-31T09:56:49;99922.41;;;28.68;27.83
41531;BME280;58990;46.284;13.126;2022-10-31T09:59:31;99922.78;;;29.34;26.76
41531;BME280;58990;46.284;13.126;2022-10-31T10:02:13;99922.56;;;29.06;27.84
41531;BME280;58990;46.284;13.126;2022-10-31T10:16:00;99921.63;;;29.16;27.48
41531;BME280;58990;46.284;13.126;2022-10-31T10:24:09;99921.81;;;28.76;28.46
41531;BME280;58990;46.284;13.126;2022-10-31T10:26:41;99917.00;;;28.68;29.05
41531;BME280;58990;46.284;13.126;2022-10-31T10:32:15;99915.72;;;28.60;28.66
41531;BME280;58990;46.284;13.126;2022-10-31T10:34:47;99924.66;;;28.56;28.95
41531;BME280;58990;46.284;13.126;2022-10-31T10:37:22;99922.56;;;28.82;28.88
41531;BME280;58990;46.284;13.126;2022-10-31T10:39:55;99918.88;;;28.97;28.92
41531;BME280;58990;46.284;13.126;2022-10-31T10:42:22;99925.31;;;29.01;28.58
41531;BME280;58990;46.284;13.126;2022-10-31T10:45:16;99922.19;;;28.30;30.61
41531;BME280;58990;46.284;13.126;2022-10-31T10:48:15;99910.38;;;28.84;29.32
41531;BME280;58990;46.284;13.126;2022-10-31T10:50:47;99912.28;;;28.20;29.65
41531;BME280;58990;46.284;13.126;2022-10-31T10:59:19;99913.00;;;28.90;27.94
41531;BME280;58990;46.284;13.126;2022-10-31T11:01:48;99904.38;;;28.88;28.53
41531;BME280;58990;46.284;13.126;2022-10-31T11:04:25;99896.72;;;28.70;28.09
41531;BME280;58990;46.284;13.126;2022-10-31T11:06:59;99899.22;;;28.67;27.81
41531;BME280;58990;46.284;13.126;2022-10-31T11:09:25;99893.41;;;28.49;27.91
41531;BME280;58990;46.284;13.126;2022-10-31T11:11:51;99900.41;;;28.50;26.83
41531;BME280;58990;46.284;13.126;2022-10-31T11:14:17;99900.06;;;28.86;25.18
41531;BME280;58990;46.284;13.126;2022-10-31T11:16:45;99893.59;;;28.88;24.16
41531;BME280;58990;46.284;13.126;2022-10-31T11:21:50;99903.97;;;28.11;26.85
41531;BME280;58990;46.284;13.126;2022-10-31T11:24:18;99898.75;;;27.85;28.03
41531;BME280;58990;46.284;13.126;2022-10-31T11:26:46;99896.84;;;27.41;28.83
41531;BME280;58990;46.284;13.126;2022-10-31T11:29:21;99891.97;;;27.48;28.62
41531;BME280;58990;46.284;13.126;2022-10-31T11:31:47;99889.00;;;27.50;28.42
41531;BME280;58990;46.284;13.126;2022-10-31T11:34:28;99880.00;;;27.65;28.96
41531;BME280;58990;46.284;13.126;2022-10-31T11:37:01;99879.44;;;27.68;28.36
41531;BME280;58990;46.284;13.126;2022-10-31T11:39:28;99879.81;;;27.96;26.95
41531;BME280;58990;46.284;13.126;2022-10-31T11:41:54;99879.53;;;28.32;27.09
41531;BME280;58990;46.284;13.126;2022-10-31T11:44:25;99883.94;;;28.23;27.81
41531;BME280;58990;46.284;13.126;2022-10-31T11:46:58;99882.13;;;27.73;29.57
41531;BME280;58990;46.284;13.126;2022-10-31T11:49:36;99872.41;;;27.72;30.17
41531;BME280;58990;46.284;13.126;2022-10-31T11:52:06;99887.19;;;27.30;30.62
41531;BME280;58990;46.284;13.126;2022-10-31T11:54:41;99874.88;;;27.08;30.58
41531;BME280;58990;46.284;13.126;2022-10-31T11:57:31;99878.63;;;27.17;30.85
41531;BME280;58990;46.284;13.126;2022-10-31T11:59:59;99877.56;;;27.08;30.75
41531;BME280;58990;46.284;13.126;2022-10-31T12:02:25;99867.75;;;26.00;32.17
41531;BME280;58990;46.284;13.126;2022-10-31T12:04:59;99861.56;;;26.41;32.02
41531;BME280;58990;46.284;13.126;2022-10-31T12:07:25;99864.69;;;25.45;33.33
41531;BME280;58990;46.284;13.126;2022-10-31T12:09:50;99862.34;;;25.64;32.88
41531;BME280;58990;46.284;13.126;2022-10-31T12:32:21;99844.84;;;25.67;35.68
41531;BME280;58990;46.284;13.126;2022-10-31T12:35:13;99843.78;;;25.52;34.98
41531;BME280;58990;46.284;13.126;2022-10-31T12:46:20;99841.69;;;24.96;36.68
41531;BME280;58990;46.284;13.126;2022-10-31T12:57:34;99831.63;;;24.71;37.07
41531;BME280;58990;46.284;13.126;2022-10-31T13:00:14;99830.06;;;24.80;36.36
41531;BME280;58990;46.284;13.126;2022-10-31T13:05:38;99824.22;;;24.99;35.39
41531;BME280;58990;46.284;13.126;2022-10-31T13:08:09;99823.69;;;25.02;34.63
41531;BME280;58990;46.284;13.126;2022-10-31T13:10:42;99823.16;;;24.95;35.33
41531;BME280;58990;46.284;13.126;2022-10-31T13:13:25;99818.22;;;24.76;36.16
41531;BME280;58990;46.284;13.126;2022-10-31T13:15:58;99817.44;;;24.76;36.96
41531;BME280;58990;46.284;13.126;2022-10-31T13:18:38;99825.16;;;24.67;36.82
41531;BME280;58990;46.284;13.126;2022-10-31T13:21:11;99821.75;;;24.39;37.53
41531;BME280;58990;46.284;13.126;2022-10-31T13:23:39;99813.16;;;24.37;37.96
41531;BME280;58990;46.284;13.126;2022-10-31T13:29:09;99811.25;;;24.70;39.15
41531;BME280;58990;46.284;13.126;2022-10-31T13:31:40;99817.63;;;24.64;40.09
41531;BME280;58990;46.284;13.126;2022-10-31T13:34:18;99812.91;;;24.87;39.03
41531;BME280;58990;46.284;13.126;2022-10-31T13:42:45;99805.81;;;24.22;41.10
41531;BME280;58990;46.284;13.126;2022-10-31T13:45:16;99812.63;;;24.40;40.77
41531;BME280;58990;46.284;13.126;2022-10-31T13:47:42;99806.81;;;24.53;40.40
41531;BME280;58990;46.284;13.126;2022-10-31T13:53:18;99805.22;;;24.58;40.33
41531;BME280;58990;46.284;13.126;2022-10-31T13:55:46;99805.28;;;24.63;41.45
41531;BME280;58990;46.284;13.126;2022-10-31T13:58:29;99806.75;;;24.43;40.35
41531;BME280;58990;46.284;13.126;2022-10-31T14:03:44;99803.41;;;24.21;41.59
41531;BME280;58990;46.284;13.126;2022-10-31T14:06:11;99807.03;;;24.04;42.16
41531;BME280;58990;46.284;13.126;2022-10-31T14:08:40;99810.72;;;23.98;42.55
41531;BME280;58990;46.284;13.126;2022-10-31T14:11:09;99813.38;;;23.93;43.01
41531;BME280;58990;46.284;13.126;2022-10-31T14:13:45;99804.56;;;23.97;43.04
41531;BME280;58990;46.284;13.126;2022-10-31T14:16:31;99801.47;;;23.83;42.99
41531;BME280;58990;46.284;13.126;2022-10-31T14:19:01;99801.50;;;23.56;43.10
41531;BME280;58990;46.284;13.126;2022-10-31T14:21:29;99800.75;;;23.61;43.44
41531;BME280;58990;46.284;13.126;2022-10-31T14:23:56;99803.25;;;23.45;43.44
41531;BME280;58990;46.284;13.126;2022-10-31T14:34:33;99814.09;;;23.28;44.83
41531;BME280;58990;46.284;13.126;2022-10-31T14:40:28;99805.16;;;23.23;45.72
41531;BME280;58990;46.284;13.126;2022-10-31T14:46:32;99805.47;;;23.04;47.14
41531;BME280;58990;46.284;13.126;2022-10-31T14:51:47;99799.81;;;22.78;48.98
41531;BME280;58990;46.284;13.126;2022-10-31T14:54:17;99806.75;;;22.79;48.63
41531;BME280;58990;46.284;13.126;2022-10-31T14:56:50;99812.06;;;22.74;49.59
41531;BME280;58990;46.284;13.126;2022-10-31T14:59:21;99804.50;;;22.49;51.36
41531;BME280;58990;46.284;13.126;2022-10-31T15:02:17;99807.41;;;22.13;51.71
41531;BME280;58990;46.284;13.126;2022-10-31T15:04:46;99806.53;;;22.08;53.07
41531;BME280;58990;46.284;13.126;2022-10-31T15:07:22;99807.50;;;22.18;52.63
41531;BME280;58990;46.284;13.126;2022-10-31T15:09:57;99803.47;;;21.99;53.42
41531;BME280;58990;46.284;13.126;2022-10-31T15:15:21;99800.22;;;21.80;55.60
41531;BME280;58990;46.284;13.126;2022-10-31T15:17:55;99801.31;;;21.67;55.54
41531;BME280;58990;46.284;13.126;2022-10-31T15:20:24;99797.28;;;21.64;56.36
41531;BME280;58990;46.284;13.126;2022-10-31T15:22:51;99802.44;;;21.54;57.34
41531;BME280;58990;46.284;13.126;2022-10-31T15:25:21;99790.75;;;21.43;57.44
41531;BME280;58990;46.284;13.126;2022-10-31T15:27:48;99794.13;;;21.39;58.15
41531;BME280;58990;46.284;13.126;2022-10-31T15:30:26;99796.50;;;21.23;59.37
41531;BME280;58990;46.284;13.126;2022-10-31T15:32:52;99798.53;;;21.04;60.72
41531;BME280;58990;46.284;13.126;2022-10-31T15:35:22;99802.50;;;21.02;61.15
41531;BME280;58990;46.284;13.126;2022-10-31T15:37:48;99800.88;;;20.89;61.55
41531;BME280;58990;46.284;13.126;2022-10-31T15:40:16;99801.25;;;20.80;61.55
41531;BME280;58990;46.284;13.126;2022-10-31T15:42:43;99802.63;;;20.59;62.14
41531;BME280;58990;46.284;13.126;2022-10-31T15:48:00;99801.16;;;20.28;62.99
41531;BME280;58990;46.284;13.126;2022-10-31T15:50:36;99803.00;;;20.15;63.72